• Join FlightAware (Why Join?)
  • Login
  • US Flag 
04:08AM EDT


 

Airport Tracker/Info


-or-


 

Live Flight TrackerFlight Track Log ✈ SWA2166 ✈ 12-Apr-2013 ✈ KMDW - KPVD

Flight Track Log - Related Links

Times and Time Zones

All times are in EDT time to prevent confusion due to time zone crossing. See the SWA2166 flight status page for this flight to view local times or setup timezone preferences in your user account.

Time Position Orientation Groundspeed Altitude Reporting Facility
EDT Latitude Longitude Course Direction KTS MPH feet Rate Location/Type
10:42AM 41.7667 -87.7667 109° East 142 163 2,000  Level Chicago TRACON
10:43AM 41.7500 -87.7000 109° East 203 234 4,200 2,280 Climbing Chicago TRACON
10:44AM 41.7556 -87.5439 87° East 275 316 8,200 2,760 Climbing Chicago Center
10:46AM 41.7572 -87.4297 89° East 306 352 11,900 3,240 Climbing Chicago Center
10:47AM 41.7581 -87.3039 89° East 339 390 14,900 2,580 Climbing Chicago Center
10:48AM 41.7719 -87.1658 82° East 375 432 17,200 2,520 Climbing Chicago Center
10:49AM 41.7867 -87.0156 82° East 408 470 20,200 3,000 Climbing Chicago Center
10:50AM 41.8025 -86.8572 82° East 429 494 23,500 2,880 Climbing Chicago Center
10:51AM 41.8181 -86.6978 82° East 434 499 26,200 2,460 Climbing Chicago Center
10:52AM 41.8369 -86.5003 83° East 456 525 28,600 2,040 Climbing Chicago Center
10:53AM 41.8553 -86.3211 82° East 477 549 30,500 1,980 Climbing Chicago Center
10:54AM 41.8714 -86.1422 83° East 483 556 32,700 1,980 Climbing Chicago Center
10:55AM 41.8878 -85.9625 83° East 483 556 34,600 1,500 Climbing Chicago Center
10:56AM 41.9039 -85.7806 83° East 487 560 35,900 1,200 Climbing Chicago Center
10:57AM 41.9203 -85.5944 83° East 494 568 37,100 1,260 Climbing Chicago Center
10:58AM 41.9361 -85.4050 84° East 503 579 38,600 1,500 Climbing Chicago Center
10:59AM 41.9503 -85.2547 83° East 505 581 39,900 1,320 Climbing Cleveland Center
11:00AM 41.9533 -85.0761 89° East 511 588 41,000 540 Climbing Cleveland Center
11:01AM 41.9542 -84.8919 90° East 499 574 41,000  Level Cleveland Center
11:02AM 41.9503 -84.7100 92° East 493 567 41,000  Level Cleveland Center
11:03AM 41.9675 -84.5211 83° East 493 567 41,000  Level Cleveland Center
11:04AM 41.9861 -84.3350 82° East 499 574 41,000  Level Cleveland Center
11:05AM 42.0031 -84.1322 84° East 499 574 41,000  Level Cleveland Center
11:06AM 42.0233 -83.9431 82° East 499 574 41,000  Level Cleveland Center
11:07AM 42.0411 -83.7539 83° East 504 580 41,000  Level Cleveland Center
11:08AM 42.0589 -83.5644 83° East 504 580 41,000  Level Cleveland Center
11:09AM 42.0781 -83.3753 82° East 509 586 41,000  Level Cleveland Center
11:10AM 42.0950 -83.1856 83° East 509 586 41,000  Level Cleveland Center
11:11AM 42.1097 -82.9986 84° East 509 586 41,000  Level Cleveland Center
11:12AM 42.1281 -82.8061 83° East 509 586 41,000  Level Cleveland Center
11:13AM 42.1419 -82.6217 84° East 504 580 41,000  Level Cleveland Center
11:14AM 42.1617 -82.4347 82° East 504 580 41,000  Level Cleveland Center
11:15AM 42.1750 -82.2475 84° East 499 574 41,000  Level Cleveland Center
11:16AM 42.1919 -82.0769 82° East 504 580 41,000  Level Cleveland Center
11:17AM 42.2069 -81.8894 84° East 505 581 41,000  Level Cleveland Center
11:18AM 42.2233 -81.6992 83° East 505 581 41,000  Level Cleveland Center
11:19AM 42.2356 -81.5114 85° East 505 581 41,000  Level Cleveland Center
11:20AM 42.2536 -81.3042 83° East 505 581 41,000  Level Cleveland Center
11:21AM 42.2694 -81.1133 84° East 510 587 41,000  Level Cleveland Center
11:22AM 42.2825 -80.9256 85° East 510 587 41,000  Level Cleveland Center
11:23AM 42.2933 -80.7292 86° East 510 587 41,000  Level Cleveland Center
11:24AM 42.3058 -80.5411 85° East 510 587 41,000  Level Cleveland Center
11:25AM 42.3203 -80.3528 84° East 510 587 41,000  Level Cleveland Center
11:26AM 42.3322 -80.1619 85° East 510 587 41,000  Level Cleveland Center
11:27AM 42.3439 -79.9736 85° East 504 580 41,000  Level Cleveland Center
11:28AM 42.3575 -79.7853 84° East 499 574 41,000  Level Cleveland Center
11:29AM 42.3664 -79.5967 86° East 499 574 41,000  Level Cleveland Center
11:30AM 42.3792 -79.4111 85° East 499 574 41,000  Level Cleveland Center
11:31AM 42.3897 -79.2225 86° East 499 574 41,000  Level Cleveland Center
11:32AM 42.4000 -79.0394 86° East 499 574 41,000  Level Cleveland Center
11:33AM 42.4097 -78.8508 86° East 499 574 41,000  Level Cleveland Center
11:34AM 42.4214 -78.6622 85° East 499 574 41,000  Level Cleveland Center
11:35AM 42.4306 -78.4789 86° East 499 574 41,000  Level Cleveland Center
11:36AM 42.4394 -78.2903 86° East 499 574 41,000  Level Cleveland Center
11:37AM 42.4481 -78.0983 86° East 499 574 41,000  Level Cleveland Center
11:38AM 42.4564 -77.9067 87° East 504 580 41,000  Level Cleveland Center
11:39AM 42.4647 -77.7403 86° East 504 580 41,000  Level Cleveland Center
11:40AM 42.4744 -77.5456 86° East 499 574 41,000  Level Cleveland Center
11:42AM 42.4917 -77.0672 87° East 532 612 41,000  Level Boston Center
11:43AM 42.4994 -76.8733 87° East 527 606 41,000  Level Boston Center
11:44AM 42.5047 -76.6764 88° East 527 606 41,000  Level Boston Center
11:45AM 42.5119 -76.4769 87° East 522 601 41,000  Level Boston Center
11:46AM 42.5000 -76.2844 95° East 522 601 41,000  Level Boston Center
11:47AM 42.4519 -76.1014 110° East 481 554 41,000  Level Boston Center
11:48AM 42.4408 -75.9206 95° East 475 547 41,000  Level Boston Center
11:49AM 42.4297 -75.7342 95° East 480 552 41,000  Level Boston Center
11:50AM 42.4225 -75.5508 93° East 486 559 41,000  Level Boston Center
11:51AM 42.4108 -75.3619 95° East 492 566 41,000 -900 Level Boston Center
11:52AM 42.4006 -75.1814 94° East 492 566 39,200 -2,220 Descending Boston Center
11:53AM 42.3903 -75.0011 94° East 487 560 36,700 -2,760 Descending Boston Center
11:55AM 42.3689 -74.6347 94° East 487 560 30,900 -2,580 Descending Boston Center
11:56AM 42.3575 -74.4631 95° East 477 549 29,000 -960 Descending Boston Center
11:57AM 42.3478 -74.2886 94° East 472 543 29,000 -420 Level Boston Center
11:58AM 42.3381 -74.1142 94° East 467 537 28,200 -900 Descending Boston Center
11:59AM 42.3258 -73.9397 95° East 467 537 27,200 -1,020 Descending Boston Center
12:00PM 42.3156 -73.7681 95° East 462 532 26,200 -1,020 Descending Boston Center
12:01PM 42.3050 -73.5856 94° East 468 539 25,200 -1,140 Descending Boston Center
12:02PM 42.2942 -73.4225 95° East 461 531 24,000 -1,800 Descending Boston Center
12:03PM 42.2786 -73.2650 98° East 440 506 21,600 -1,860 Descending Boston Center
12:04PM 42.2506 -73.1161 104° East 422 486 20,400 -1,140 Descending Boston Center
12:05PM 42.1781 -73.0172 135° Southeast 371 427 19,400 -720 Descending Boston Center
12:06PM 42.1117 -72.9186 132° Southeast 366 421 19,000 -240 Descending Boston Center
12:07PM 42.0414 -72.8286 136° Southeast 352 405 19,000  Level Boston Center
12:08PM 41.9728 -72.7361 135° Southeast 352 405 19,000 -360 Level Boston Center
12:09PM 41.9083 -72.6353 131° Southeast 352 405 18,300 -1,020 Descending Boston Center
12:10PM 41.8481 -72.5236 126° Southeast 360 414 17,000 -1,140 Descending Boston Center
12:10PM 41.8294 -72.4875 125° Southeast 355 409 16,800 -2,040 Descending Boston Center
12:11PM 41.7897 -72.4206 128° Southeast 360 414 15,000 -2,460 Descending Boston Center
12:11PM 41.7711 -72.3844 125° Southeast 355 409 14,300 -1,980 Descending Boston Center
12:12PM 41.7314 -72.3122 126° Southeast 360 414 13,000 -2,040 Descending Boston Center
12:12PM 41.7106 -72.2789 130° Southeast 351 404 12,200 -2,040 Descending Boston Center
12:13PM 41.6769 -72.2094 123° Southeast 355 409 11,000 -1,260 Descending Boston Center
12:13PM 41.6497 -72.1706 133° Southeast 336 387 11,000  Level Boston Center
12:14PM 41.6289 -72.1264 122° Southeast 331 381 11,000 -600 Level Boston Center
12:15PM 41.6017 -72.0819 129° Southeast 298 343 10,400 -1,620 Descending Boston Center
12:15PM 41.5617 -71.9906 120° Southeast 301 346 8,800 -1,860 Descending Boston Center
12:16PM 41.5633 -71.8825 89° East 323 372 6,900 -1,860 Descending Boston Center
12:17PM 41.5689 -71.7686 86° East 307 353 5,300 -1,080 Descending Boston Center
12:18PM 41.5747 -71.6742 85° East 250 288 4,800 -900 Descending Boston Center
12:19PM 41.5803 -71.5936 85° East 205 236 3,500 -1,380 Descending Boston Center
12:20PM 41.6047 -71.5350 61° Northeast 191 220 2,100 -840 Descending Boston Center
12:21PM 41.6378 -71.5014 37° Northeast 148 170 1,900 -480 Descending Boston Center
12:22PM 41.6669 -71.4758 33° Northeast 141 162 1,200 -720 Descending Boston Center
12:23PM 41.6958 -71.4531 30° Northeast 122 140 600 -600 Descending Boston Center
12:25PM 41.7167 -71.4167 37° Northeast  Level FlightAware Approximate